LIRS/GRS METAR and TAF weather

Enter ICAO airport designator
Station Type Date Time Source
LIRS METAR 2021/03/03 00:55 UTC NOAA

LIRS 030055Z 06005KT CAVOK 04/03 Q1032


Station Type Date Time Source
LIRS Decoded METAR 2021/03/03 00:55 UTC NOAA

Grosseto, Italy (LIRS) 42-45N 011-04E 7M
Mar 02, 2021 - 07:55 PM EST / 2021.03.03 0055 UTC
Wind: from the ENE (060 degrees) at 6 MPH (5 KT):0
Visibility: greater than 7 mile(s):0
Temperature: 39 F (4 C)
Dew Point: 37 F (3 C)
Relative Humidity: 93%
Pressure (altimeter): 30.47 in. Hg (1032 hPa)
ob: LIRS 030055Z 06005KT CAVOK 04/03 Q1032
cycle: 1

Station Type Date Time Source
LIRS TAF 2018/06/29 09:24 UTC NOAA

TAF TAF LIRS 290800Z 2909/2921 VRB03KT 9999 FEW030
BECMG 2911/2913 24015KT

Example: see airport list